Hlavní strana
METAR-TAF:

METAR-TAF

Letiště :

Vidalia Regional Airport

Vidalia, Georgie, Spojené státy americké

zeměpisná šířka: 32-11-33N, zeměpisná délka: 082-22-19W, výška: 84 m

Aktuální stav počasí

Zpráva byla vytvořena před 35 minutami, v 09:35 UTC
Bezvětří
Teplota 13°C
Vlhkost vzduchu 88%
Tlak 1019 hPa
Viditelnost: 16.1 km
Jasno

METAR: KVDI 060935Z AUTO 00000KT 10SM CLR 13/11 A3010 RMK AO2

Čas: 06:10 (10:10 UTC)


TAF: chybějící

Stav a předpovědi počasí z více než 4 000 letišť (zprávy METAR a TAF).

Červené a žluté tečky na mapě představují dostupné meteorologické stanice.

Když kurzor umístíte na tečku, zobrazí se název stanice.

Pak kliknutím zobrazíte stav a předpověď počasí.

Chcete-li změnit mapu, kliknutím na zelené tlačítko se znaménkem +mapu přiblížíte, kliknutím na zelené tlačítko se znaménkem – mapu oddálíte a kliknutím na zelené šipky přejdete na sousední mapy.


METAR-TAF: